Am Tubarao — A8ZA9 — position and weather

sailwx.info

Track history (hours):
 
Tides and Currents Weather Stations Pressure Air Temp Water Temp Dewpoint Dewpoint Depression Visibility Wind Speed Wind Dir Waves Ship Positions

Am Tubarao

Last reported at 2016-Jul-30 12:33 UTC. Time now 2016-Jul-30 13:05 UTC.
Position N 53°53' E 008°43'.

Length 230 m; draft 8.2 m.

Type: Cargo ship. MMSI: 636015171.

Date/timePositionNaut miles runAvg speedWind from/ knotsBaromVisibWave heightAir tempDewpointWater temp
2016-Jul-30 12:33N 53°53' E 008°43'1414.0
2016-Jul-30 11:33N 53°53' E 009°07'1010.2
2016-Jul-30 10:33N 53°49' E 009°22'1211.5
2016-Jul-30 09:33N 53°38' E 009°32'9 9.3
2016-Jul-30 08:33N 53°34' E 009°45'7 7.0
2016-Jul-30 07:34N 53°32' E 009°56'1 0.5
2016-Jul-30 06:31N 53°31' E 009°56'0 0.0
2016-Jul-30 05:31N 53°31' E 009°56'0 0.0
2016-Jul-30 04:31N 53°31' E 009°56'0 0.0
2016-Jul-30 03:28N 53°31' E 009°56'0 0.0
2016-Jul-30 02:31N 53°31' E 009°56'0 0.0
2016-Jul-30 01:31N 53°31' E 009°56'0 0.0
2016-Jul-30 00:31N 53°31' E 009°56'0 0.0
2016-Jul-29 23:31N 53°31' E 009°56'0 0.0
2016-Jul-29 22:31N 53°31' E 009°56'0 0.0
2016-Jul-29 21:31N 53°31' E 009°56'0 0.0
2016-Jul-29 20:31N 53°31' E 009°56'0 0.0
2016-Jul-29 19:31N 53°31' E 009°56'0 0.0
2016-Jul-29 18:31N 53°31' E 009°56'0 0.0
2016-Jul-29 17:31N 53°31' E 009°56'0 0.0
2016-Jul-29 16:31N 53°31' E 009°56'0 0.0
2016-Jul-29 15:31N 53°31' E 009°56'0 0.0
2016-Jul-29 14:31N 53°31' E 009°56'0 0.0
2016-Jul-29 13:31N 53°31' E 009°56'0 0.0
2016-Jul-29 12:31N 53°31' E 009°56'0 0.0
2016-Jul-29 11:31N 53°31' E 009°56'0 0.0
2016-Jul-29 10:31N 53°31' E 009°56'0 0.0
2016-Jul-29 09:31N 53°31' E 009°56'0 0.0
2016-Jul-29 08:31N 53°31' E 009°56'0 0.0
2016-Jul-29 07:31N 53°31' E 009°56'0 0.0
2016-Jul-29 06:31N 53°31' E 009°56'0 0.0
2016-Jul-29 05:31N 53°31' E 009°56'0 0.0
2016-Jul-29 04:31N 53°31' E 009°56'0 0.0
2016-Jul-29 03:31N 53°31' E 009°56'0 0.0
2016-Jul-29 02:31N 53°31' E 009°56'0 0.0
2016-Jul-29 01:31N 53°31' E 009°56'0 0.0
2016-Jul-29 00:31N 53°31' E 009°56'0 0.0
2016-Jul-28 23:31N 53°31' E 009°56'0 0.0
2016-Jul-28 22:31N 53°31' E 009°56'0 0.0
2016-Jul-28 21:33N 53°31' E 009°56'4 4.4
2016-Jul-28 20:33N 53°33' E 009°49'9 8.9
2016-Jul-28 19:33N 53°36' E 009°35'1110.6
2016-Jul-28 18:33N 53°45' E 009°25'1211.6
2016-Jul-28 17:33N 53°53' E 009°11'1211.7
2016-Jul-28 16:34N 53°50' E 008°52'1612.2
2016-Jul-28 15:13N 53°59' E 008°27'913.1
2016-Jul-28 14:33N 53°60' E 008°13'1211.8
2016-Jul-28 13:33N 54°02' E 007°53'4 3.5
2016-Jul-28 12:32N 54°04' E 007°48'0 0.2
2016-Jul-28 11:32N 54°04' E 007°48'0 0.0
2016-Jul-28 10:32N 54°04' E 007°48'0 0.0
2016-Jul-28 09:33N 54°04' E 007°48'1 1.1
2016-Jul-28 08:33N 54°05' E 007°47'5 4.9
2016-Jul-28 07:33N 54°08' E 007°40'7 6.8
2016-Jul-28 06:33N 54°09' E 007°28'9 9.5
2016-Jul-28 05:34N 54°09' E 007°12'39 7.7
2016-Jul-28 00:31N 54°07' E 006°06'7 7.5
2016-Jul-27 23:33N 54°06' E 005°54'7 6.7
2016-Jul-27 22:33N 54°05' E 005°43'8 7.7
2016-Jul-27 21:33N 54°04' E 005°30'7 7.3
2016-Jul-27 20:33N 54°03' E 005°17'7 7.0
2016-Jul-27 19:33N 54°02' E 005°06'8 7.1
2016-Jul-27 18:25N 54°01' E 004°52'6 6.9
2016-Jul-27 17:33N 53°59' E 004°43'149 8.2
2016-Jul-26 23:30N 51°50' E 002°38'9 8.0
2016-Jul-26 22:24N 51°43' E 002°32'8 8.9
2016-Jul-26 21:34N 51°37' E 002°23'10 9.5
2016-Jul-26 20:34N 51°30' E 002°13'1010.1
2016-Jul-26 19:33N 51°23' E 002°02'1010.4
2016-Jul-26 18:33N 51°15' E 001°51'1111.1
2016-Jul-26 17:34N 51°06' E 001°40'1111.0
2016-Jul-26 16:33N 50°57' E 001°29'1210.7
2016-Jul-26 15:28N 50°46' E 001°23'45 9.2
2016-Jul-26 10:31N 50°23' E 000°22'9 8.3
2016-Jul-26 09:29N 50°21' E 000°10'7 7.8
2016-Jul-26 08:33N 50°18' W 000°02'7 7.4
2016-Jul-26 07:33N 50°17' W 000°13'14 6.8
2016-Jul-26 05:32N 50°13' W 000°33'17 7.7
2016-Jul-26 03:21N 50°09' W 000°59'8 9.5
2016-Jul-26 02:34N 50°07' W 001°10'6811.4
2016-Jul-25 20:33N 49°49' W 002°52'9 9.3
2016-Jul-25 19:33N 49°47' W 003°06'8 8.5
2016-Jul-25 18:33N 49°45' W 003°19'8 8.1
2016-Jul-25 17:34N 49°43' W 003°31'  
Track history (hours):
 
Tides and Currents Weather Stations Pressure Air Temp Water Temp Dewpoint Dewpoint Depression Visibility Wind Speed Wind Dir Waves Ship Positions

Am Tubarao

Last reported at 2016-Jul-30 12:33 UTC. Time now 2016-Jul-30 13:05 UTC.
Position N 53°53' E 008°43'.

Length 230 m; draft 8.2 m.

Type: Cargo ship. MMSI: 636015171.

Date/timePositionNaut miles runAvg speedWind from/ knotsBaromVisibWave heightAir tempDewpointWater temp
2016-Jul-30 12:33N 53°53' E 008°43'1414.0
2016-Jul-30 11:33N 53°53' E 009°07'1010.2
2016-Jul-30 10:33N 53°49' E 009°22'1211.5
2016-Jul-30 09:33N 53°38' E 009°32'9 9.3
2016-Jul-30 08:33N 53°34' E 009°45'7 7.0
2016-Jul-30 07:34N 53°32' E 009°56'1 0.5
2016-Jul-30 06:31N 53°31' E 009°56'0 0.0
2016-Jul-30 05:31N 53°31' E 009°56'0 0.0
2016-Jul-30 04:31N 53°31' E 009°56'0 0.0
2016-Jul-30 03:28N 53°31' E 009°56'0 0.0
2016-Jul-30 02:31N 53°31' E 009°56'0 0.0
2016-Jul-30 01:31N 53°31' E 009°56'0 0.0
2016-Jul-30 00:31N 53°31' E 009°56'0 0.0
2016-Jul-29 23:31N 53°31' E 009°56'0 0.0
2016-Jul-29 22:31N 53°31' E 009°56'0 0.0
2016-Jul-29 21:31N 53°31' E 009°56'0 0.0
2016-Jul-29 20:31N 53°31' E 009°56'0 0.0
2016-Jul-29 19:31N 53°31' E 009°56'0 0.0
2016-Jul-29 18:31N 53°31' E 009°56'0 0.0
2016-Jul-29 17:31N 53°31' E 009°56'0 0.0
2016-Jul-29 16:31N 53°31' E 009°56'0 0.0
2016-Jul-29 15:31N 53°31' E 009°56'0 0.0
2016-Jul-29 14:31N 53°31' E 009°56'0 0.0
2016-Jul-29 13:31N 53°31' E 009°56'0 0.0
2016-Jul-29 12:31N 53°31' E 009°56'0 0.0
2016-Jul-29 11:31N 53°31' E 009°56'0 0.0
2016-Jul-29 10:31N 53°31' E 009°56'0 0.0
2016-Jul-29 09:31N 53°31' E 009°56'0 0.0
2016-Jul-29 08:31N 53°31' E 009°56'0 0.0
2016-Jul-29 07:31N 53°31' E 009°56'0 0.0
2016-Jul-29 06:31N 53°31' E 009°56'0 0.0
2016-Jul-29 05:31N 53°31' E 009°56'0 0.0
2016-Jul-29 04:31N 53°31' E 009°56'0 0.0
2016-Jul-29 03:31N 53°31' E 009°56'0 0.0
2016-Jul-29 02:31N 53°31' E 009°56'0 0.0
2016-Jul-29 01:31N 53°31' E 009°56'0 0.0
2016-Jul-29 00:31N 53°31' E 009°56'0 0.0
2016-Jul-28 23:31N 53°31' E 009°56'0 0.0
2016-Jul-28 22:31N 53°31' E 009°56'0 0.0
2016-Jul-28 21:33N 53°31' E 009°56'4 4.4
2016-Jul-28 20:33N 53°33' E 009°49'9 8.9
2016-Jul-28 19:33N 53°36' E 009°35'1110.6
2016-Jul-28 18:33N 53°45' E 009°25'1211.6
2016-Jul-28 17:33N 53°53' E 009°11'1211.7
2016-Jul-28 16:34N 53°50' E 008°52'1612.2
2016-Jul-28 15:13N 53°59' E 008°27'913.1
2016-Jul-28 14:33N 53°60' E 008°13'1211.8
2016-Jul-28 13:33N 54°02' E 007°53'4 3.5
2016-Jul-28 12:32N 54°04' E 007°48'0 0.2
2016-Jul-28 11:32N 54°04' E 007°48'0 0.0
2016-Jul-28 10:32N 54°04' E 007°48'0 0.0
2016-Jul-28 09:33N 54°04' E 007°48'1 1.1
2016-Jul-28 08:33N 54°05' E 007°47'5 4.9
2016-Jul-28 07:33N 54°08' E 007°40'7 6.8
2016-Jul-28 06:33N 54°09' E 007°28'9 9.5
2016-Jul-28 05:34N 54°09' E 007°12'39 7.7
2016-Jul-28 00:31N 54°07' E 006°06'7 7.5
2016-Jul-27 23:33N 54°06' E 005°54'7 6.7
2016-Jul-27 22:33N 54°05' E 005°43'8 7.7
2016-Jul-27 21:33N 54°04' E 005°30'7 7.3
2016-Jul-27 20:33N 54°03' E 005°17'7 7.0
2016-Jul-27 19:33N 54°02' E 005°06'8 7.1
2016-Jul-27 18:25N 54°01' E 004°52'6 6.9
2016-Jul-27 17:33N 53°59' E 004°43'149 8.2
2016-Jul-26 23:30N 51°50' E 002°38'9 8.0
2016-Jul-26 22:24N 51°43' E 002°32'8 8.9
2016-Jul-26 21:34N 51°37' E 002°23'10 9.5
2016-Jul-26 20:34N 51°30' E 002°13'1010.1
2016-Jul-26 19:33N 51°23' E 002°02'1010.4
2016-Jul-26 18:33N 51°15' E 001°51'1111.1
2016-Jul-26 17:34N 51°06' E 001°40'1111.0
2016-Jul-26 16:33N 50°57' E 001°29'1210.7
2016-Jul-26 15:28N 50°46' E 001°23'45 9.2
2016-Jul-26 10:31N 50°23' E 000°22'9 8.3
2016-Jul-26 09:29N 50°21' E 000°10'7 7.8
2016-Jul-26 08:33N 50°18' W 000°02'7 7.4
2016-Jul-26 07:33N 50°17' W 000°13'14 6.8
2016-Jul-26 05:32N 50°13' W 000°33'17 7.7
2016-Jul-26 03:21N 50°09' W 000°59'8 9.5
2016-Jul-26 02:34N 50°07' W 001°10'6811.4
2016-Jul-25 20:33N 49°49' W 002°52'9 9.3
2016-Jul-25 19:33N 49°47' W 003°06'8 8.5
2016-Jul-25 18:33N 49°45' W 003°19'8 8.1
2016-Jul-25 17:34N 49°43' W 003°31'  

Dump ship's entire track history